Terminal Aerodrome Forecast
Issued by NWS

Home | Current Version | Previous Version | Text Only | Print | Product List | Glossary On
Versions: 1 2 3 4 5 6 7 8 9 10 11 12 13 14 15 16 17 18 19 20 21 22 23 24 25 26
111
FTUS45 KABQ 200223 AAB
TAFGUP
TAF AMD
KGUP 200223Z 2002/2024 23012KT P6SM -SHSN BKN010 OVC025
      TEMPO 2002/2004 2SM -SHSN BR BKN009
     FM200400 23015G23KT 2SM -SN BR BKN015 OVC035
     FM201300 23012G19KT P6SM BKN025 OVC040
     FM201700 23018G25KT P6SM OVC050=

USA.gov is the U.S. government's official web portal to all federal, state and local government web resources and services.